Time;durP1;ratioP1;P1;durP2;ratioP2;P2;SDS_P1;SDS_P2;PMS_P1;PMS_P2;Temp;Humidity;BMP_temperature;BMP_pressure;BME280_temperature;BME280_humidity;BME280_pressure;Samples;Min_cycle;Max_cycle;Signal;HPM_P1;HPM_P2
2022/08/09 00:01:30;;;;;;;11.50;7.35;;;14.90;99.90;;;;;;4988671;28;20081;-92
2022/08/09 00:03:56;;;;;;;10.05;6.97;;;14.90;99.90;;;;;;4987788;28;20163;-92
2022/08/09 00:06:22;;;;;;;10.27;6.95;;;14.90;99.90;;;;;;4989576;28;20088;-93
2022/08/09 00:08:49;;;;;;;10.10;7.40;;;14.90;99.90;;;;;;4987180;28;20416;-93
2022/08/09 00:11:16;;;;;;;10.75;7.05;;;14.80;99.90;;;;;;4971648;28;20088;-93
2022/08/09 00:13:42;;;;;;;10.45;7.57;;;14.80;99.90;;;;;;4988819;28;20130;-93
2022/08/09 00:16:08;;;;;;;11.85;8.10;;;14.80;99.90;;;;;;4987134;28;20042;-93
2022/08/09 00:18:34;;;;;;;10.52;7.65;;;14.80;99.90;;;;;;4987695;28;20047;-91
2022/08/09 00:21:03;;;;;;;10.25;7.85;;;14.70;99.90;;;;;;4985878;28;20046;-94
2022/08/09 00:23:29;;;;;;;10.38;7.10;;;14.70;99.90;;;;;;4987827;28;20364;-93
2022/08/09 00:25:54;;;;;;;10.93;7.32;;;14.70;99.90;;;;;;4986645;28;20074;-93
2022/08/09 00:28:21;;;;;;;11.00;6.88;;;14.60;99.90;;;;;;4987311;28;20384;-94
2022/08/09 00:30:47;;;;;;;9.75;7.22;;;14.60;99.90;;;;;;4986477;28;20100;-92
2022/08/09 00:33:12;;;;;;;10.57;7.25;;;14.60;99.90;;;;;;4987181;28;20439;-93
2022/08/09 00:35:38;;;;;;;11.02;7.80;;;14.50;99.90;;;;;;4987170;28;20856;-93
2022/08/09 00:38:04;;;;;;;10.18;7.63;;;14.50;99.90;;;;;;4987486;28;20837;-92
2022/08/09 00:40:29;;;;;;;10.68;7.65;;;14.50;99.90;;;;;;4986834;28;20045;-92
2022/08/09 00:42:55;;;;;;;10.57;7.35;;;14.50;99.90;;;;;;4988830;28;20526;-94
2022/08/09 00:45:20;;;;;;;9.98;7.20;;;14.50;99.90;;;;;;4987906;28;20039;-91
2022/08/09 00:47:46;;;;;;;10.95;7.18;;;14.50;99.90;;;;;;4987086;28;20054;-92
2022/08/09 00:50:12;;;;;;;12.52;7.85;;;14.40;99.90;;;;;;4988917;28;20539;-92
2022/08/09 00:52:37;;;;;;;10.50;6.82;;;14.50;99.90;;;;;;4990898;28;20057;-92
2022/08/09 00:55:04;;;;;;;9.85;7.45;;;14.40;99.90;;;;;;4991886;28;20096;-93
2022/08/09 00:57:30;;;;;;;9.23;6.82;;;14.30;99.90;;;;;;4991136;28;20395;-92
2022/08/09 00:59:56;;;;;;;9.32;6.80;;;14.30;99.90;;;;;;4990975;28;20050;-92
2022/08/09 01:02:27;;;;;;;10.13;6.20;;;14.20;99.90;;;;;;4995107;28;20072;-93
2022/08/09 01:05:08;;;;;;;10.02;6.28;;;14.20;99.90;;;;;;4994146;28;20046;-91
2022/08/09 01:07:47;;;;;;;10.65;7.28;;;14.20;99.90;;;;;;4977547;28;20046;-92
2022/08/09 01:10:22;;;;;;;10.43;6.72;;;14.20;99.90;;;;;;4973492;28;20058;-91
2022/08/09 01:12:52;;;;;;;9.63;7.15;;;14.20;99.90;;;;;;4990599;28;20084;-93
2022/08/09 01:15:27;;;;;;;9.27;6.47;;;14.20;99.90;;;;;;4992461;28;20039;-91
2022/08/09 01:18:03;;;;;;;10.50;6.68;;;14.10;99.90;;;;;;4990357;28;20399;-92
2022/08/09 01:21:25;;;;;;;10.25;6.30;;;14.20;99.90;;;;;;4991752;28;20046;-92
2022/08/09 01:24:03;;;;;;;8.52;6.22;;;14.10;99.90;;;;;;4990674;28;20405;-92
2022/08/09 01:26:40;;;;;;;10.55;7.85;;;14.10;99.90;;;;;;4991211;28;20061;-91
2022/08/09 01:29:11;;;;;;;10.23;7.10;;;14.10;99.90;;;;;;4985902;28;20124;-93
2022/08/09 01:31:39;;;;;;;9.75;6.93;;;14.00;99.90;;;;;;4990726;28;20763;-92
2022/08/09 01:34:09;;;;;;;9.70;6.35;;;13.90;99.90;;;;;;4988863;28;20054;-92
2022/08/09 01:36:37;;;;;;;9.10;6.20;;;13.90;99.90;;;;;;4991030;28;20050;-91
2022/08/09 01:39:03;;;;;;;10.13;6.28;;;13.80;99.90;;;;;;4974141;28;20050;-91
2022/08/09 01:41:31;;;;;;;9.00;6.45;;;13.70;99.90;;;;;;4990371;28;20061;-91
2022/08/09 01:43:59;;;;;;;9.05;6.60;;;13.70;99.90;;;;;;4990333;28;20038;-91
2022/08/09 01:46:32;;;;;;;9.63;7.35;;;13.60;99.90;;;;;;4992811;28;20049;-92
2022/08/09 01:49:09;;;;;;;11.98;7.88;;;13.50;99.90;;;;;;4990252;28;20050;-92
2022/08/09 01:51:36;;;;;;;9.73;7.57;;;13.60;99.90;;;;;;4971443;28;20042;-92
2022/08/09 01:54:04;;;;;;;10.07;7.47;;;13.50;99.90;;;;;;4990487;28;20058;-91
2022/08/09 01:56:32;;;;;;;10.85;7.88;;;13.50;99.90;;;;;;4996542;28;20096;-90
2022/08/09 01:59:00;;;;;;;11.75;8.13;;;13.50;99.90;;;;;;4977399;28;20035;-89
2022/08/09 02:01:28;;;;;;;10.30;7.72;;;13.50;99.90;;;;;;4992952;28;20050;-91
2022/08/09 02:03:57;;;;;;;11.05;7.40;;;13.50;99.90;;;;;;4993535;28;20051;-92
2022/08/09 02:09:10;;;;;;;10.80;7.75;;;13.50;99.90;;;;;;4995930;28;20116;-91
2022/08/09 02:11:36;;;;;;;11.55;8.07;;;13.40;99.90;;;;;;4995075;28;20398;-92
2022/08/09 02:14:05;;;;;;;10.68;8.32;;;13.40;99.90;;;;;;4988789;28;20077;-93
2022/08/09 02:16:34;;;;;;;11.05;8.13;;;13.40;99.90;;;;;;4989576;28;20065;-92
2022/08/09 02:19:00;;;;;;;12.52;8.63;;;13.40;99.90;;;;;;4989163;28;20132;-94
2022/08/09 02:21:30;;;;;;;11.20;8.32;;;13.40;99.90;;;;;;4987767;28;20054;-92
2022/08/09 02:23:58;;;;;;;10.98;7.63;;;13.40;99.90;;;;;;4987047;28;20140;-91
2022/08/09 02:26:28;;;;;;;11.65;7.97;;;13.40;99.90;;;;;;4987958;28;20133;-91
2022/08/09 02:28:58;;;;;;;11.75;8.15;;;13.40;99.90;;;;;;4969991;28;20411;-91
2022/08/09 02:31:29;;;;;;;10.48;7.80;;;13.40;99.90;;;;;;4984050;28;20043;-91
2022/08/09 02:33:59;;;;;;;11.05;7.95;;;13.40;99.90;;;;;;4986683;28;20046;-90
2022/08/09 02:36:42;;;;;;;10.70;7.40;;;13.30;99.90;;;;;;4970816;28;20046;-91
2022/08/09 02:39:14;;;;;;;10.80;7.80;;;13.30;99.90;;;;;;4986984;28;20078;-91
2022/08/09 02:41:46;;;;;;;11.45;7.80;;;13.30;99.90;;;;;;4987382;28;20082;-93
2022/08/09 02:44:19;;;;;;;10.80;7.97;;;13.30;99.90;;;;;;4971941;28;20046;-92
2022/08/09 02:46:48;;;;;;;10.55;8.02;;;13.20;99.90;;;;;;4988512;28;20365;-93
2022/08/09 02:49:18;;;;;;;10.73;7.57;;;13.20;99.90;;;;;;4986075;28;20046;-94
2022/08/09 02:51:45;;;;;;;12.07;8.25;;;13.20;99.90;;;;;;4988259;28;20058;-92
2022/08/09 02:54:14;;;;;;;12.65;8.25;;;13.20;99.90;;;;;;4971534;28;20054;-91
2022/08/09 02:56:42;;;;;;;10.68;8.00;;;13.20;99.90;;;;;;4987440;28;20050;-92
2022/08/09 02:59:10;;;;;;;14.35;8.38;;;13.20;99.90;;;;;;4988936;28;20054;-92
2022/08/09 03:01:38;;;;;;;13.05;8.20;;;13.20;99.90;;;;;;4990724;28;20060;-93
2022/08/09 03:04:04;;;;;;;12.07;8.90;;;13.20;99.90;;;;;;4993032;28;20116;-91
2022/08/09 03:06:31;;;;;;;12.82;9.40;;;13.20;99.90;;;;;;4989173;28;20046;-93
2022/08/09 03:08:58;;;;;;;12.48;9.43;;;13.30;99.90;;;;;;4987490;28;20467;-93
2022/08/09 03:11:25;;;;;;;12.63;9.25;;;13.30;99.90;;;;;;4987803;28;20050;-92
2022/08/09 03:13:52;;;;;;;13.00;9.73;;;13.30;99.90;;;;;;4986232;28;20054;-92
2022/08/09 03:16:18;;;;;;;12.15;8.90;;;13.30;99.90;;;;;;4987480;28;20082;-91
2022/08/09 03:18:47;;;;;;;12.80;8.60;;;13.40;99.90;;;;;;4993281;28;20042;-91
2022/08/09 03:21:18;;;;;;;11.43;7.82;;;13.40;99.90;;;;;;4973887;28;20078;-93
2022/08/09 03:23:47;;;;;;;10.82;8.07;;;13.40;99.90;;;;;;4986862;28;20096;-92
2022/08/09 03:26:15;;;;;;;11.15;8.35;;;13.40;99.90;;;;;;4970728;28;20073;-95
2022/08/09 03:28:45;;;;;;;13.32;8.38;;;13.40;99.90;;;;;;4988675;28;20464;-94
2022/08/09 03:31:11;;;;;;;12.25;8.80;;;13.40;99.90;;;;;;4986556;28;20081;-94
2022/08/09 03:33:38;;;;;;;11.63;8.52;;;13.30;99.90;;;;;;4985112;28;20127;-93
2022/08/09 03:36:06;;;;;;;12.07;8.80;;;13.30;99.90;;;;;;4988326;28;20057;-92
2022/08/09 03:38:33;;;;;;;13.30;9.32;;;13.30;99.90;;;;;;4987475;28;20058;-91
2022/08/09 03:40:58;;;;;;;12.90;9.07;;;13.30;99.90;;;;;;4969688;28;20046;-92
2022/08/09 03:43:26;;;;;;;13.27;8.60;;;13.30;99.90;;;;;;4986547;28;20042;-93
2022/08/09 03:45:52;;;;;;;11.88;8.48;;;13.30;99.90;;;;;;4986112;28;20054;-92
2022/08/09 03:48:20;;;;;;;12.07;8.93;;;13.30;99.90;;;;;;4970688;28;20074;-92
2022/08/09 03:50:48;;;;;;;11.48;8.25;;;13.20;99.90;;;;;;4987261;28;20042;-91
2022/08/09 03:53:15;;;;;;;12.15;8.15;;;13.20;99.90;;;;;;4983675;28;20060;-91
2022/08/09 03:55:40;;;;;;;11.10;7.90;;;13.20;99.90;;;;;;4987399;28;20069;-91
2022/08/09 03:58:06;;;;;;;11.45;8.30;;;13.20;99.90;;;;;;4985031;28;20050;-91
2022/08/09 04:00:32;;;;;;;12.57;9.35;;;13.20;99.90;;;;;;4986106;28;20046;-90
2022/08/09 04:02:58;;;;;;;12.77;8.95;;;13.20;99.90;;;;;;4985958;28;20034;-92
2022/08/09 04:05:24;;;;;;;11.88;8.60;;;13.20;99.90;;;;;;4987589;28;20054;-91
2022/08/09 04:07:50;;;;;;;12.27;8.75;;;13.20;99.90;;;;;;4985289;28;20578;-90
2022/08/09 04:10:16;;;;;;;13.90;9.63;;;13.20;99.90;;;;;;4986456;28;20117;-93
2022/08/09 04:12:49;;;;;;;12.18;8.60;;;13.20;99.90;;;;;;4986417;28;20399;-91
2022/08/09 04:15:16;;;;;;;12.93;9.30;;;13.30;99.90;;;;;;4983526;28;20081;-92
2022/08/09 04:17:42;;;;;;;12.85;8.68;;;13.30;99.90;;;;;;4970664;28;20077;-93
2022/08/09 04:20:10;;;;;;;13.48;8.98;;;13.30;99.90;;;;;;4986898;28;20066;-91
2022/08/09 04:22:36;;;;;;;13.40;8.70;;;13.30;99.90;;;;;;4986372;28;20049;-91
2022/08/09 04:25:03;;;;;;;12.40;8.60;;;13.30;99.90;;;;;;4987722;28;20088;-90
2022/08/09 04:27:29;;;;;;;14.07;9.25;;;13.20;99.90;;;;;;4989394;28;20554;-90
2022/08/09 04:29:56;;;;;;;11.65;8.48;;;13.20;99.90;;;;;;4989904;28;20050;-91
2022/08/09 04:32:21;;;;;;;11.85;8.10;;;13.20;99.90;;;;;;4989127;28;20406;-92
2022/08/09 04:34:47;;;;;;;13.13;8.35;;;13.20;99.90;;;;;;4990677;28;20125;-90
2022/08/09 04:37:12;;;;;;;12.05;8.65;;;13.30;99.90;;;;;;4989741;28;20137;-91
2022/08/09 04:39:38;;;;;;;11.57;8.38;;;13.30;99.90;;;;;;4989798;28;20117;-91
2022/08/09 04:42:04;;;;;;;12.05;8.07;;;13.40;99.90;;;;;;4989373;28;20492;-89
2022/08/09 04:44:29;;;;;;;12.35;8.50;;;13.50;99.90;;;;;;4989275;28;20042;-92
2022/08/09 04:46:56;;;;;;;11.63;8.30;;;13.50;99.90;;;;;;4989900;28;20455;-91
2022/08/09 04:49:22;;;;;;;11.55;8.27;;;13.60;99.90;;;;;;4992051;28;20054;-92
2022/08/09 04:51:48;;;;;;;11.25;7.97;;;13.60;99.90;;;;;;4992521;28;20403;-91
2022/08/09 04:54:13;;;;;;;11.45;7.90;;;13.60;99.90;;;;;;4992627;28;20042;-92
2022/08/09 04:56:39;;;;;;;12.60;8.40;;;13.70;99.90;;;;;;4992337;28;20054;-93
2022/08/09 04:59:04;;;;;;;13.57;8.32;;;13.70;99.90;;;;;;4991472;28;20101;-93
2022/08/09 05:01:30;;;;;;;11.38;8.40;;;13.70;99.90;;;;;;4980977;28;20046;-93
2022/08/09 05:03:55;;;;;;;12.07;8.13;;;13.80;99.90;;;;;;4976548;28;20534;-93
2022/08/09 05:06:21;;;;;;;11.32;8.30;;;13.90;99.90;;;;;;4988910;28;20104;-94
2022/08/09 05:08:47;;;;;;;13.05;8.80;;;13.90;99.90;;;;;;4990163;28;20517;-91
2022/08/09 05:11:12;;;;;;;11.13;8.45;;;14.00;99.90;;;;;;4972372;28;20077;-92
2022/08/09 05:13:39;;;;;;;12.23;8.13;;;14.10;99.90;;;;;;4988660;28;20077;-90
2022/08/09 05:16:06;;;;;;;12.38;8.00;;;14.10;99.90;;;;;;4990280;28;20046;-91
2022/08/09 05:18:32;;;;;;;10.90;8.48;;;14.20;99.90;;;;;;4987762;28;20056;-91
2022/08/09 05:21:01;;;;;;;11.65;8.50;;;14.30;99.90;;;;;;4992512;28;20038;-92
2022/08/09 05:23:27;;;;;;;14.60;8.93;;;14.40;99.90;;;;;;4992958;28;20060;-94
2022/08/09 05:25:52;;;;;;;11.88;8.52;;;14.40;99.90;;;;;;4991664;28;20038;-94
2022/08/09 05:28:20;;;;;;;15.70;9.55;;;14.50;99.90;;;;;;4992156;28;20085;-92
2022/08/09 05:30:46;;;;;;;13.57;8.73;;;14.70;99.90;;;;;;4990979;28;20072;-95
2022/08/09 05:33:11;;;;;;;13.82;8.98;;;14.70;99.90;;;;;;4989752;28;20540;-91
2022/08/09 05:35:37;;;;;;;13.68;9.20;;;14.80;99.90;;;;;;4990063;28;20042;-92
2022/08/09 05:38:03;;;;;;;12.43;8.85;;;14.90;99.90;;;;;;4988713;28;20104;-91
2022/08/09 05:40:28;;;;;;;13.45;9.43;;;15.00;99.90;;;;;;4988782;28;20395;-93
2022/08/09 05:42:55;;;;;;;12.45;8.65;;;15.00;99.90;;;;;;4972403;28;20620;-94
2022/08/09 05:45:20;;;;;;;11.48;8.25;;;15.10;99.90;;;;;;4990415;28;20047;-94
2022/08/09 05:47:46;;;;;;;11.00;7.75;;;15.20;99.90;;;;;;4975281;28;20065;-93
2022/08/09 05:50:12;;;;;;;10.75;8.00;;;15.30;99.90;;;;;;4977383;28;20094;-94
2022/08/09 05:52:39;;;;;;;10.75;7.55;;;15.40;99.90;;;;;;4998773;28;20554;-94
2022/08/09 05:55:06;;;;;;;12.00;8.27;;;15.60;99.90;;;;;;4993947;28;20273;-92
2022/08/09 05:57:35;;;;;;;11.10;7.65;;;15.60;99.90;;;;;;4992284;28;20483;-94
2022/08/09 06:00:03;;;;;;;10.68;7.18;;;15.70;99.90;;;;;;4989946;28;20046;-95
2022/08/09 06:02:28;;;;;;;10.40;7.78;;;15.80;99.90;;;;;;4991514;28;20089;-94
2022/08/09 06:04:54;;;;;;;12.68;7.82;;;15.90;99.90;;;;;;4973108;28;20069;-93
2022/08/09 06:07:20;;;;;;;10.70;7.43;;;16.00;99.90;;;;;;4992066;28;20137;-93
2022/08/09 06:09:45;;;;;;;11.00;7.30;;;16.10;99.90;;;;;;4991344;28;20052;-95
2022/08/09 06:12:11;;;;;;;11.35;7.68;;;16.20;99.90;;;;;;4976292;28;20045;-94
2022/08/09 06:14:36;;;;;;;11.77;7.70;;;16.30;99.90;;;;;;4992158;28;20806;-93
2022/08/09 06:17:02;;;;;;;9.85;7.32;;;16.40;99.90;;;;;;4989721;28;20129;-94
2022/08/09 06:19:28;;;;;;;10.18;7.47;;;16.50;99.90;;;;;;4990282;28;20039;-94
2022/08/09 06:21:53;;;;;;;10.60;7.35;;;16.70;99.90;;;;;;4989849;28;20046;-94
2022/08/09 06:24:19;;;;;;;11.35;7.38;;;16.80;99.90;;;;;;4991657;28;20050;-94
2022/08/09 06:26:45;;;;;;;10.07;7.00;;;16.90;99.90;;;;;;4973708;28;20050;-93
2022/08/09 06:29:10;;;;;;;10.57;7.30;;;17.00;99.90;;;;;;4991614;28;20069;-93
2022/08/09 06:31:36;;;;;;;11.27;6.80;;;17.20;99.90;;;;;;4991601;28;20133;-93
2022/08/09 06:34:03;;;;;;;10.30;6.72;;;17.30;99.90;;;;;;4989990;28;20050;-93
2022/08/09 06:36:29;;;;;;;9.73;6.78;;;17.40;99.90;;;;;;4975457;28;20038;-93
2022/08/09 06:38:54;;;;;;;10.32;6.43;;;17.40;99.90;;;;;;4990790;28;20076;-93
2022/08/09 06:41:20;;;;;;;10.10;6.53;;;17.50;99.90;;;;;;4975391;28;20125;-93
2022/08/09 06:43:48;;;;;;;8.80;5.93;;;17.70;99.90;;;;;;4990434;28;20100;-88
2022/08/09 06:46:15;;;;;;;9.25;5.80;;;17.70;99.90;;;;;;4973730;28;20399;-93
2022/08/09 06:48:41;;;;;;;9.05;5.70;;;17.80;99.90;;;;;;4987773;28;20463;-93
2022/08/09 06:51:08;;;;;;;10.07;5.45;;;17.90;99.90;;;;;;4988936;28;20043;-94
2022/08/09 06:53:34;;;;;;;9.45;5.45;;;18.00;99.90;;;;;;4989318;28;20054;-93
2022/08/09 06:56:01;;;;;;;9.02;5.18;;;18.00;99.90;;;;;;4975039;28;20049;-94
2022/08/09 06:58:30;;;;;;;8.88;5.10;;;18.20;99.90;;;;;;4990487;28;20054;-91
2022/08/09 07:00:56;;;;;;;9.48;4.80;;;18.20;99.90;;;;;;4988735;28;20038;-94
2022/08/09 07:03:23;;;;;;;8.70;4.68;;;18.30;99.90;;;;;;4992915;28;20538;-94
2022/08/09 07:05:49;;;;;;;8.75;4.47;;;18.30;99.90;;;;;;4992357;28;20530;-95
2022/08/09 07:08:15;;;;;;;8.93;4.43;;;18.40;99.90;;;;;;4990098;28;20042;-93
2022/08/09 07:10:41;;;;;;;10.23;4.47;;;18.40;99.90;;;;;;4972892;28;20447;-94
2022/08/09 07:13:06;;;;;;;7.68;4.13;;;18.40;99.90;;;;;;4974595;28;20042;-93
2022/08/09 07:15:32;;;;;;;8.00;3.92;;;18.60;99.90;;;;;;4976121;28;20042;-95
2022/08/09 07:18:01;;;;;;;8.45;3.83;;;18.70;99.90;;;;;;4972066;28;20120;-94
2022/08/09 07:20:26;;;;;;;7.88;3.83;;;18.80;99.90;;;;;;4988535;28;20041;-93
2022/08/09 07:22:52;;;;;;;7.85;3.40;;;18.90;99.90;;;;;;4972389;28;20042;-92
2022/08/09 07:25:18;;;;;;;7.30;2.80;;;19.00;99.90;;;;;;4990361;28;20038;-91
2022/08/09 07:27:45;;;;;;;7.82;2.85;;;19.00;99.90;;;;;;4987771;28;20125;-94
2022/08/09 07:30:12;;;;;;;6.32;2.70;;;19.00;99.90;;;;;;4991512;28;20544;-90
2022/08/09 07:32:38;;;;;;;7.43;2.70;;;19.10;99.90;;;;;;4994797;28;20046;-94
2022/08/09 07:35:06;;;;;;;6.82;2.90;;;19.10;99.90;;;;;;4989314;28;20519;-91
2022/08/09 07:37:32;;;;;;;7.22;2.60;;;19.20;99.90;;;;;;4972641;28;20124;-91
2022/08/09 07:39:57;;;;;;;6.97;2.70;;;19.30;99.90;;;;;;4988287;28;20086;-95
2022/08/09 07:42:23;;;;;;;7.47;3.22;;;19.50;99.90;;;;;;4972379;28;20119;-93
2022/08/09 07:44:50;;;;;;;8.95;2.95;;;19.50;99.90;;;;;;4988021;28;20045;-94
2022/08/09 07:47:16;;;;;;;6.55;2.63;;;19.50;99.90;;;;;;4988157;28;20057;-92
2022/08/09 07:49:41;;;;;;;6.70;2.40;;;19.60;99.90;;;;;;4987889;28;20057;-96
2022/08/09 07:52:07;;;;;;;7.93;2.42;;;19.70;99.90;;;;;;4989595;28;20068;-94
2022/08/09 07:54:33;;;;;;;4.13;2.08;;;19.80;99.90;;;;;;4985938;28;20074;-91
2022/08/09 07:57:00;;;;;;;5.45;2.20;;;19.70;99.90;;;;;;4968573;28;20116;-91
2022/08/09 07:59:25;;;;;;;7.03;2.67;;;19.70;99.90;;;;;;4987929;28;20053;-92
2022/08/09 08:01:54;;;;;;;6.25;2.60;;;19.70;99.90;;;;;;4974952;28;20273;-89
2022/08/09 08:04:20;;;;;;;5.35;2.40;;;19.70;99.90;;;;;;4991000;28;20082;-90
2022/08/09 08:06:46;;;;;;;7.55;2.65;;;19.80;99.90;;;;;;4990762;28;20061;-90
2022/08/09 08:09:12;;;;;;;7.93;2.35;;;19.80;99.90;;;;;;4989924;28;20054;-89
2022/08/09 08:11:37;;;;;;;6.45;2.28;;;19.70;99.90;;;;;;4990939;28;20411;-94
2022/08/09 08:14:03;;;;;;;5.60;2.20;;;19.60;99.90;;;;;;4989744;28;20042;-92
2022/08/09 08:16:29;;;;;;;6.63;2.42;;;19.60;99.90;;;;;;4990612;28;20038;-92
2022/08/09 08:18:56;;;;;;;6.07;2.28;;;19.60;99.90;;;;;;4989294;28;20046;-91
2022/08/09 08:21:22;;;;;;;6.97;2.33;;;19.60;99.90;;;;;;4994527;28;20125;-94
2022/08/09 08:23:48;;;;;;;4.85;2.08;;;19.70;99.90;;;;;;4990964;28;20427;-95
2022/08/09 08:26:14;;;;;;;7.47;2.20;;;19.70;99.90;;;;;;4994186;28;20046;-90
2022/08/09 08:28:40;;;;;;;7.30;2.40;;;19.80;99.90;;;;;;4989774;28;20093;-94
2022/08/09 08:31:05;;;;;;;4.15;1.60;;;20.00;99.90;;;;;;4986474;28;20054;-94
2022/08/09 08:33:31;;;;;;;6.03;1.85;;;19.90;99.90;;;;;;4973315;28;20066;-90
2022/08/09 08:35:56;;;;;;;5.18;1.98;;;20.00;99.90;;;;;;4989764;28;20042;-95
2022/08/09 08:38:22;;;;;;;5.25;2.10;;;20.10;99.90;;;;;;4974247;28;20403;-92
2022/08/09 08:40:48;;;;;;;4.88;1.98;;;20.20;99.90;;;;;;4989580;28;20486;-89
2022/08/09 08:43:14;;;;;;;4.97;1.80;;;20.30;99.90;;;;;;4990866;28;20042;-93
2022/08/09 08:45:49;;;;;;;5.75;1.60;;;20.40;99.90;;;;;;4973596;28;20562;-93
2022/08/09 08:48:15;;;;;;;4.18;1.88;;;20.60;99.90;;;;;;4988697;28;20495;-89
2022/08/09 08:50:41;;;;;;;3.25;1.92;;;20.80;99.90;;;;;;4988857;28;20076;-88
2022/08/09 08:53:07;;;;;;;4.38;1.55;;;20.90;99.90;;;;;;4987754;28;20042;-92
2022/08/09 08:55:32;;;;;;;4.72;1.63;;;21.10;99.90;;;;;;4989317;28;20053;-90
2022/08/09 08:57:58;;;;;;;4.45;1.73;;;21.20;99.90;;;;;;4988551;28;20046;-91
2022/08/09 09:00:26;;;;;;;5.35;2.15;;;21.10;99.90;;;;;;4989949;28;20128;-93
2022/08/09 09:02:57;;;;;;;4.53;2.03;;;20.90;99.90;;;;;;4988281;28;20050;-92
2022/08/09 09:05:24;;;;;;;4.50;1.88;;;20.80;99.90;;;;;;4990132;28;20606;-93
2022/08/09 09:07:51;;;;;;;3.70;1.83;;;20.70;99.90;;;;;;4989929;28;20061;-89
2022/08/09 09:10:17;;;;;;;3.90;1.75;;;20.70;99.90;;;;;;4989420;28;20054;-91
2022/08/09 09:12:45;;;;;;;4.47;1.88;;;20.60;99.90;;;;;;4990654;28;20042;-91
2022/08/09 09:15:11;;;;;;;3.95;1.80;;;20.40;99.90;;;;;;4989000;28;20082;-92
2022/08/09 09:17:37;;;;;;;4.85;2.17;;;20.50;99.90;;;;;;4989958;28;20514;-93
2022/08/09 09:20:11;;;;;;;5.97;1.60;;;20.40;99.90;;;;;;4991345;28;20052;-93
2022/08/09 09:22:54;;;;;;;4.10;1.52;;;20.40;99.90;;;;;;4989255;28;20141;-93
2022/08/09 09:25:49;;;;;;;3.70;1.40;;;20.40;99.90;;;;;;4975471;28;20117;-92
2022/08/09 09:28:18;;;;;;;3.60;1.48;;;20.40;99.90;;;;;;4985759;28;20419;-94
2022/08/09 09:30:56;;;;;;;3.50;1.30;;;20.40;99.90;;;;;;4990150;28;20046;-95
2022/08/09 09:33:34;;;;;;;3.85;1.58;;;20.50;99.90;;;;;;4989466;28;20053;-95
2022/08/09 09:36:05;;;;;;;3.30;1.30;;;20.40;99.90;;;;;;4989773;28;20047;-94
2022/08/09 09:38:43;;;;;;;3.78;1.40;;;20.40;99.90;;;;;;4989700;28;20057;-93
2022/08/09 09:41:10;;;;;;;3.10;1.30;;;20.40;99.90;;;;;;4971207;28;20042;-90
2022/08/09 09:43:36;;;;;;;3.05;1.33;;;20.50;99.90;;;;;;4989169;28;20042;-92
2022/08/09 09:46:02;;;;;;;2.22;1.10;;;20.50;99.90;;;;;;4986684;28;20073;-94
2022/08/09 09:48:28;;;;;;;3.35;1.30;;;20.70;99.90;;;;;;4989270;28;20407;-92
2022/08/09 09:50:54;;;;;;;3.00;1.10;;;20.80;99.90;;;;;;4987881;28;20487;-92
2022/08/09 09:53:26;;;;;;;2.72;1.50;;;20.90;99.90;;;;;;4988816;28;20058;-89
2022/08/09 09:55:56;;;;;;;2.88;1.25;;;21.10;99.90;;;;;;4987422;28;20392;-89
2022/08/09 09:58:23;;;;;;;2.97;1.30;;;21.10;99.90;;;;;;4988925;28;20106;-88
2022/08/09 10:00:51;;;;;;;2.58;1.20;;;21.20;99.90;;;;;;4972279;28;20043;-94
2022/08/09 10:03:17;;;;;;;2.58;1.30;;;21.10;99.90;;;;;;4989434;28;20046;-94
2022/08/09 10:05:59;;;;;;;2.20;1.10;;;21.10;99.90;;;;;;4989846;28;20098;-95
2022/08/09 10:08:25;;;;;;;2.92;1.17;;;21.20;99.90;;;;;;4987917;28;20407;-88
2022/08/09 10:10:51;;;;;;;2.80;1.20;;;21.30;99.90;;;;;;4989281;28;20042;-90
2022/08/09 10:13:17;;;;;;;2.55;1.20;;;21.30;99.90;;;;;;4993775;28;20107;-90
2022/08/09 10:15:48;;;;;;;2.45;1.17;;;21.30;99.90;;;;;;4974827;28;20388;-89
2022/08/09 10:18:14;;;;;;;3.35;1.27;;;21.50;99.90;;;;;;4986303;28;20050;-88
2022/08/09 10:20:39;;;;;;;1.92;1.20;;;21.40;99.90;;;;;;4988815;28;20054;-91
2022/08/09 10:23:20;;;;;;;3.10;1.20;;;21.50;99.90;;;;;;4986361;28;20061;-93
2022/08/09 10:25:46;;;;;;;1.25;0.98;;;21.50;99.90;;;;;;4986735;28;20054;-91
2022/08/09 10:28:12;;;;;;;2.03;1.10;;;21.50;99.90;;;;;;4987926;28;20082;-94
2022/08/09 10:30:38;;;;;;;1.95;1.20;;;21.60;99.90;;;;;;4988234;28;20890;-94
2022/08/09 10:33:04;;;;;;;2.83;1.23;;;21.60;99.90;;;;;;4972611;28;20086;-91
2022/08/09 10:35:30;;;;;;;2.70;1.30;;;21.60;99.90;;;;;;4988572;28;20039;-91
2022/08/09 10:37:59;;;;;;;4.38;1.27;;;21.70;99.90;;;;;;4988551;28;20084;-92
2022/08/09 10:40:25;;;;;;;2.65;1.10;;;21.80;99.90;;;;;;4973641;28;20061;-87
2022/08/09 10:42:51;;;;;;;1.65;1.13;;;21.80;99.90;;;;;;4970561;28;20447;-91
2022/08/09 10:45:17;;;;;;;2.08;1.10;;;21.90;99.90;;;;;;4989112;28;20047;-88
2022/08/09 10:48:01;;;;;;;2.55;1.30;;;21.80;99.90;;;;;;4974020;28;20042;-96
2022/08/09 10:54:06;;;;;;;3.95;1.20;;;21.80;99.90;;;;;;4985533;28;20054;-91
2022/08/09 10:56:33;;;;;;;2.13;1.10;;;21.80;99.90;;;;;;4992178;28;20647;-93
2022/08/09 10:59:01;;;;;;;3.38;1.10;;;21.90;99.90;;;;;;4986601;28;20046;-91
2022/08/09 11:01:30;;;;;;;4.13;1.30;;;21.90;99.90;;;;;;4987542;28;20057;-91
2022/08/09 11:04:11;;;;;;;2.55;1.25;;;22.00;99.90;;;;;;4988331;28;20058;-93
2022/08/09 11:06:38;;;;;;;3.45;1.38;;;22.10;99.90;;;;;;4990473;28;20069;-94
2022/08/09 11:09:05;;;;;;;3.35;1.08;;;22.10;99.90;;;;;;4987120;28;20046;-90
2022/08/09 11:11:53;;;;;;;2.72;1.35;;;22.10;99.90;;;;;;4990482;28;20061;-91
2022/08/09 11:14:33;;;;;;;1.80;1.10;;;22.10;99.90;;;;;;4987259;28;20050;-93
2022/08/09 11:17:00;;;;;;;4.13;1.23;;;22.10;99.90;;;;;;4991873;28;20053;-87
2022/08/09 11:19:52;;;;;;;2.50;1.20;;;22.20;99.90;;;;;;4983039;28;20093;-90
2022/08/09 11:22:18;;;;;;;2.13;1.40;;;22.20;99.90;;;;;;4971332;28;20121;-91
2022/08/09 11:25:11;;;;;;;3.38;1.52;;;22.20;99.90;;;;;;4991804;28;20065;-92
2022/08/09 11:27:45;;;;;;;2.90;1.40;;;22.20;99.90;;;;;;4985784;28;20090;-91
2022/08/09 11:30:32;;;;;;;3.42;1.10;;;22.20;99.90;;;;;;4987349;28;20046;-92
2022/08/09 11:33:16;;;;;;;3.20;1.40;;;22.20;99.90;;;;;;4984259;28;20077;-89
2022/08/09 11:35:43;;;;;;;5.45;1.25;;;22.20;99.90;;;;;;4987425;28;20046;-94
2022/08/09 11:38:27;;;;;;;2.85;1.30;;;22.30;99.90;;;;;;4971181;28;20380;-90
2022/08/09 11:40:53;;;;;;;3.15;1.40;;;22.30;99.90;;;;;;4974345;28;20046;-93
2022/08/09 11:43:28;;;;;;;2.28;1.13;;;22.40;99.90;;;;;;4974014;28;20042;-91
2022/08/09 11:45:59;;;;;;;2.97;1.10;;;22.50;99.90;;;;;;4974203;28;20069;-92
2022/08/09 11:48:28;;;;;;;3.28;1.38;;;22.50;99.90;;;;;;4992548;28;20057;-93
2022/08/09 11:50:57;;;;;;;4.85;1.73;;;22.50;99.90;;;;;;4972660;28;20366;-90
2022/08/09 11:53:30;;;;;;;1.60;1.00;;;22.60;99.90;;;;;;4987463;28;20097;-92
2022/08/09 11:55:58;;;;;;;3.55;1.38;;;22.60;99.90;;;;;;4971182;28;20049;-90
2022/08/09 11:58:27;;;;;;;3.90;1.33;;;22.60;99.90;;;;;;4987999;28;20053;-93
2022/08/09 12:00:55;;;;;;;4.53;1.30;;;22.70;99.90;;;;;;4986105;28;20054;-94
2022/08/09 12:03:23;;;;;;;3.63;1.17;;;22.70;99.90;;;;;;4988148;28;20038;-91
2022/08/09 12:05:51;;;;;;;2.83;1.13;;;22.80;99.90;;;;;;4986238;28;20073;-89
2022/08/09 12:08:19;;;;;;;2.40;1.30;;;22.90;99.90;;;;;;4986853;28;20053;-92
2022/08/09 12:10:49;;;;;;;2.40;1.10;;;22.80;99.90;;;;;;4983958;28;20428;-91
2022/08/09 12:13:30;;;;;;;4.75;1.30;;;23.00;99.90;;;;;;4986488;28;20065;-92
2022/08/09 12:16:10;;;;;;;;;;;22.90;99.90;;;;;;4996438;28;20054;-91
2022/08/09 12:18:37;;;;;;;2.38;1.10;;;22.80;99.90;;;;;;4995994;28;19969;-93
2022/08/09 12:21:05;;;;;;;2.22;1.10;;;22.80;99.90;;;;;;4987155;28;20056;-90
2022/08/09 12:23:32;;;;;;;2.45;1.20;;;22.90;99.90;;;;;;4988226;28;20097;-90
2022/08/09 12:26:01;;;;;;;1.80;1.13;;;22.90;99.90;;;;;;4987142;28;20061;-92
2022/08/09 12:28:27;;;;;;;1.85;1.10;;;22.80;99.90;;;;;;4987069;28;20061;-90
2022/08/09 12:30:55;;;;;;;2.40;1.10;;;22.80;99.90;;;;;;4987644;28;20050;-93
2022/08/09 12:33:23;;;;;;;2.33;1.20;;;22.90;99.90;;;;;;4990542;28;20521;-91
2022/08/09 12:36:01;;;;;;;2.90;1.20;;;23.00;99.90;;;;;;4985715;28;20057;-85
2022/08/09 12:38:29;;;;;;;2.67;1.23;;;23.00;99.90;;;;;;4987181;28;20125;-87
2022/08/09 12:40:56;;;;;;;2.80;1.10;;;23.10;99.90;;;;;;4986976;28;20640;-90
2022/08/09 12:43:24;;;;;;;3.45;1.20;;;23.20;99.90;;;;;;4987572;28;20491;-88
2022/08/09 12:45:52;;;;;;;3.50;1.25;;;23.20;99.90;;;;;;4972025;28;20034;-89
2022/08/09 12:48:19;;;;;;;1.92;1.13;;;23.20;99.90;;;;;;4991306;28;20084;-93
2022/08/09 12:50:45;;;;;;;1.40;1.00;;;23.20;99.90;;;;;;4974595;28;20407;-89
2022/08/09 12:53:28;;;;;;;2.05;1.10;;;23.20;99.90;;;;;;4991065;28;20049;-89
2022/08/09 12:56:13;;;;;;;2.58;1.30;;;23.20;99.90;;;;;;4986881;28;20234;-90